Time;durP1;ratioP1;P1;durP2;ratioP2;P2;SDS_P1;SDS_P2;PMS_P1;PMS_P2;Temp;Humidity;BMP_temperature;BMP_pressure;BME280_temperature;BME280_humidity;BME280_pressure;Samples;Min_cycle;Max_cycle;Signal;HPM_P1;HPM_P2
2021/11/15 00:00:16;;;;;;;3.22;1.60;;;;;;;6.67;83.69;103253.91;4998320;28;20475;-80
2021/11/15 00:02:44;;;;;;;3.92;1.52;;;;;;;6.66;83.76;103254.03;5013905;28;20534;-79
2021/11/15 00:05:10;;;;;;;4.13;1.65;;;;;;;6.53;83.63;103221.97;5016840;28;20045;-79
2021/11/15 00:07:36;;;;;;;1.88;1.50;;;;;;;6.61;83.61;103235.63;4999830;28;20026;-79
2021/11/15 00:10:04;;;;;;;3.00;1.40;;;;;;;6.67;83.86;103243.22;5016789;28;20030;-79
2021/11/15 00:12:29;;;;;;;2.47;1.90;;;;;;;6.69;83.94;103243.06;5016328;28;20042;-79
2021/11/15 00:14:55;;;;;;;2.13;1.35;;;;;;;6.62;83.21;103233.81;5016633;28;20510;-79
2021/11/15 00:17:20;;;;;;;3.42;1.27;;;;;;;6.66;83.66;103243.34;5016328;28;20037;-79
2021/11/15 00:19:45;;;;;;;1.98;1.30;;;;;;;6.61;83.65;103226.75;5015544;28;20029;-78
2021/11/15 00:22:11;;;;;;;2.13;1.33;;;;;;;6.63;83.39;103231.03;5015193;28;20040;-79
2021/11/15 00:24:36;;;;;;;2.08;1.30;;;;;;;6.44;83.30;103202.09;5016570;28;20030;-79
2021/11/15 00:27:03;;;;;;;2.47;1.63;;;;;;;6.57;83.51;103216.28;5014995;28;20022;-79
2021/11/15 00:29:29;;;;;;;2.88;1.50;;;;;;;6.56;83.82;103219.09;5015681;28;20463;-79
2021/11/15 00:31:56;;;;;;;2.15;1.40;;;;;;;6.60;83.60;103223.22;5015522;28;20033;-79
2021/11/15 00:34:21;;;;;;;2.35;1.60;;;;;;;6.49;83.68;103205.31;5014262;28;20018;-79
2021/11/15 00:36:47;;;;;;;2.20;1.40;;;;;;;6.60;83.55;103215.22;4999518;28;20021;-79
2021/11/15 00:39:12;;;;;;;1.63;1.30;;;;;;;6.42;83.75;103184.44;4998467;28;20363;-79
2021/11/15 00:41:38;;;;;;;2.90;1.80;;;;;;;6.58;83.78;103206.44;5016165;28;20042;-79
2021/11/15 00:44:03;;;;;;;2.70;1.40;;;;;;;6.62;83.80;103217.75;5001486;28;20030;-80
2021/11/15 00:46:29;;;;;;;3.22;1.50;;;;;;;6.61;83.45;103210.69;5004721;28;20402;-80
2021/11/15 00:48:57;;;;;;;2.60;1.65;;;;;;;6.62;83.09;103218.59;5019487;28;20026;-79
2021/11/15 00:51:25;;;;;;;3.10;1.40;;;;;;;6.48;83.74;103200.91;5013047;28;20017;-79
2021/11/15 00:53:50;;;;;;;2.30;1.50;;;;;;;6.55;83.64;103206.66;5017064;28;20060;-80
2021/11/15 00:56:16;;;;;;;2.80;1.52;;;;;;;6.51;83.43;103216.72;5015596;28;20088;-79
2021/11/15 00:58:41;;;;;;;2.72;1.67;;;;;;;6.47;83.23;103209.06;5006288;28;20037;-80
2021/11/15 01:01:07;;;;;;;3.03;1.55;;;;;;;6.56;83.61;103208.38;5022679;28;20033;-79
2021/11/15 01:03:32;;;;;;;3.25;1.83;;;;;;;6.53;83.40;103205.94;5016258;28;20033;-80
2021/11/15 01:05:59;;;;;;;2.83;1.60;;;;;;;6.51;83.24;103205.19;5013904;28;20351;-79
2021/11/15 01:08:25;;;;;;;3.25;1.50;;;;;;;6.50;83.29;103204.31;5015485;28;20057;-79
2021/11/15 01:10:52;;;;;;;3.33;1.60;;;;;;;6.49;83.41;103205.31;5014976;28;20076;-80
2021/11/15 01:13:18;;;;;;;2.65;1.77;;;;;;;6.49;82.79;103196.41;5016410;28;20025;-79
2021/11/15 01:15:44;;;;;;;2.60;1.60;;;;;;;6.45;83.00;103200.28;5014905;28;20052;-80
2021/11/15 01:18:10;;;;;;;2.95;1.70;;;;;;;6.58;82.96;103222.47;5020088;28;20034;-80
2021/11/15 01:20:36;;;;;;;2.35;1.30;;;;;;;6.26;83.10;103163.38;5018687;28;20049;-79
2021/11/15 01:23:05;;;;;;;3.42;1.52;;;;;;;6.46;82.98;103202.00;5015004;28;20050;-79
2021/11/15 01:25:32;;;;;;;2.67;1.70;;;;;;;6.58;82.77;103217.13;5015563;28;20033;-80
2021/11/15 01:27:59;;;;;;;4.28;1.90;;;;;;;6.49;82.67;103196.41;5014674;28;20033;-80
2021/11/15 01:30:25;;;;;;;2.38;1.63;;;;;;;6.57;82.92;103202.91;5015675;28;20021;-80
2021/11/15 01:32:52;;;;;;;3.58;1.60;;;;;;;6.58;83.02;103217.97;5015750;28;20024;-80
2021/11/15 01:35:18;;;;;;;2.42;1.58;;;;;;;6.59;83.01;103219.72;5016821;28;20348;-80
2021/11/15 01:37:45;;;;;;;2.63;1.50;;;;;;;6.61;82.89;103219.56;5025425;28;20053;-80
2021/11/15 01:40:16;;;;;;;2.22;1.50;;;;;;;6.61;83.17;103222.25;5024124;28;20041;-80
2021/11/15 01:42:42;;;;;;;4.05;1.50;;;;;;;6.51;83.24;103200.69;5019384;28;20041;-79
2021/11/15 01:45:10;;;;;;;5.10;1.67;;;;;;;6.61;83.08;103216.91;5019604;28;20441;-80
2021/11/15 01:47:37;;;;;;;3.30;1.77;;;;;;;6.58;83.18;103217.13;5000214;28;20479;-80
2021/11/15 01:50:05;;;;;;;2.55;1.38;;;;;;;6.54;83.32;103208.47;5017955;28;20030;-79
2021/11/15 01:52:30;;;;;;;2.67;1.48;;;;;;;6.54;83.13;103218.34;5015175;28;20053;-80
2021/11/15 01:54:56;;;;;;;4.07;1.70;;;;;;;6.52;83.45;103217.56;5015559;28;20112;-79
2021/11/15 01:57:21;;;;;;;2.58;1.70;;;;;;;5.80;83.30;103099.88;5015148;28;20091;-80
2021/11/15 01:59:47;;;;;;;2.80;1.60;;;;;;;6.55;83.35;103217.34;5015238;28;20026;-79
2021/11/15 02:02:13;;;;;;;2.53;1.45;;;;;;;6.50;83.23;103215.03;5013246;28;20065;-79
2021/11/15 02:04:38;;;;;;;3.08;1.77;;;;;;;6.51;83.44;103206.03;5014429;28;20029;-80
2021/11/15 02:07:04;;;;;;;2.33;1.60;;;;;;;6.49;83.53;103213.34;5011852;28;20041;-79
2021/11/15 02:09:30;;;;;;;2.45;1.75;;;;;;;6.16;83.67;103156.97;5014496;28;20060;-79
2021/11/15 02:11:57;;;;;;;1.58;1.35;;;;;;;6.38;83.56;103194.53;5012867;28;20409;-79
2021/11/15 02:14:23;;;;;;;3.05;1.70;;;;;;;6.37;83.64;103192.84;5016023;28;20040;-80
2021/11/15 02:16:49;;;;;;;4.70;1.80;;;;;;;6.53;83.66;103219.31;5013693;28;20423;-79
2021/11/15 02:19:14;;;;;;;2.35;1.70;;;;;;;6.42;83.74;103200.50;5014726;28;20029;-80
2021/11/15 02:21:39;;;;;;;2.92;1.67;;;;;;;6.54;83.68;103221.84;5013917;28;20026;-80
2021/11/15 02:24:05;;;;;;;4.72;1.70;;;;;;;6.51;83.85;103222.06;5014046;28;20073;-79
2021/11/15 02:26:31;;;;;;;4.45;1.70;;;;;;;6.37;84.11;103195.50;5012271;28;20025;-79
2021/11/15 02:28:56;;;;;;;2.65;1.80;;;;;;;6.33;84.13;103178.84;5014102;28;20026;-80
2021/11/15 02:31:27;;;;;;;1.75;1.30;;;;;;;6.53;84.08;103209.47;5013204;28;20036;-79
2021/11/15 02:33:56;;;;;;;2.88;1.80;;;;;;;6.41;84.31;103188.09;5009439;28;20395;-80
2021/11/15 02:36:25;;;;;;;5.13;2.08;;;;;;;6.21;84.30;103166.34;5013720;28;20068;-79
2021/11/15 02:38:54;;;;;;;2.88;1.80;;;;;;;6.39;84.48;103190.03;5012120;28;20030;-80
2021/11/15 02:41:20;;;;;;;2.60;1.70;;;;;;;6.52;84.38;103202.41;5014306;28;20021;-78
2021/11/15 02:43:46;;;;;;;3.75;1.63;;;;;;;6.51;84.35;103203.34;5013168;28;20030;-79
2021/11/15 02:46:12;;;;;;;3.60;1.55;;;;;;;6.50;84.42;103201.66;5013272;28;20058;-79
2021/11/15 02:48:38;;;;;;;2.88;1.63;;;;;;;6.26;84.62;103180.25;5013397;28;20471;-79
2021/11/15 02:51:04;;;;;;;2.67;2.05;;;;;;;6.39;84.63;103193.59;5012906;28;20091;-79
2021/11/15 02:53:30;;;;;;;2.67;1.98;;;;;;;6.50;84.41;103203.47;5012792;28;20375;-79
2021/11/15 02:55:55;;;;;;;5.18;1.90;;;;;;;6.50;84.53;103204.31;5012406;28;20049;-80
2021/11/15 02:58:21;;;;;;;3.80;1.85;;;;;;;6.52;84.50;103204.19;4996917;28;20058;-80
2021/11/15 03:00:52;;;;;;;2.67;1.83;;;;;;;6.54;84.67;103212.97;5011356;28;20030;-79
2021/11/15 03:03:18;;;;;;;3.50;1.95;;;;;;;6.37;84.50;103173.25;5013434;28;20099;-78
2021/11/15 03:05:49;;;;;;;3.25;1.80;;;;;;;6.39;84.85;103172.19;5014268;28;20037;-80
2021/11/15 03:08:16;;;;;;;3.90;1.60;;;;;;;6.50;84.83;103198.97;5018989;28;20025;-80
2021/11/15 03:10:43;;;;;;;3.95;1.70;;;;;;;6.50;85.01;103190.09;5016737;28;20040;-79
2021/11/15 03:13:10;;;;;;;3.38;1.85;;;;;;;6.49;84.61;103197.28;5012922;28;20160;-79
2021/11/15 03:15:39;;;;;;;4.05;1.90;;;;;;;6.26;84.59;103156.19;5000296;28;20482;-80
2021/11/15 03:18:10;;;;;;;3.15;1.77;;;;;;;6.49;84.73;103202.63;5014381;28;20026;-80
2021/11/15 03:20:38;;;;;;;2.53;1.95;;;;;;;6.35;84.89;103178.72;5015465;28;20053;-80
2021/11/15 03:23:06;;;;;;;3.75;2.15;;;;;;;6.41;85.32;103193.47;5010544;28;20026;-79
2021/11/15 03:25:32;;;;;;;3.15;1.85;;;;;;;6.45;84.96;103202.94;5013059;28;20026;-79
2021/11/15 03:27:58;;;;;;;4.15;1.98;;;;;;;6.47;84.89;103199.22;5011865;28;20033;-80
2021/11/15 03:30:25;;;;;;;2.75;1.80;;;;;;;6.09;84.82;103129.81;5014503;28;20021;-80
2021/11/15 03:32:51;;;;;;;4.82;1.92;;;;;;;6.30;84.83;103175.53;5011885;28;20046;-80
2021/11/15 03:35:17;;;;;;;2.67;1.80;;;;;;;6.45;84.78;103194.94;5013223;28;20026;-79
2021/11/15 03:37:43;;;;;;;3.78;2.28;;;;;;;6.45;85.25;103190.44;5012059;28;20031;-79
2021/11/15 03:40:14;;;;;;;2.78;1.85;;;;;;;6.29;85.00;103168.47;5014130;28;20416;-80
2021/11/15 03:42:43;;;;;;;3.47;2.00;;;;;;;6.26;85.03;103163.38;5011277;28;20037;-79
2021/11/15 03:45:11;;;;;;;4.03;2.28;;;;;;;6.43;85.19;103184.38;4996526;28;20080;-80
2021/11/15 03:47:38;;;;;;;5.93;1.92;;;;;;;6.39;85.25;103180.22;5013923;28;20030;-79
2021/11/15 03:50:07;;;;;;;4.95;2.20;;;;;;;6.34;85.14;103179.69;5013672;28;20459;-80
2021/11/15 03:52:34;;;;;;;3.70;2.30;;;;;;;6.41;85.12;103182.75;5012915;28;20381;-80
2021/11/15 03:54:59;;;;;;;4.07;2.50;;;;;;;6.40;85.38;103178.38;5016498;28;20117;-80
2021/11/15 03:57:25;;;;;;;3.85;2.30;;;;;;;6.41;85.32;103178.25;5000244;28;20053;-80
2021/11/15 03:59:50;;;;;;;2.67;2.22;;;;;;;6.31;85.72;103158.50;4996656;28;20030;-79
2021/11/15 04:02:17;;;;;;;3.03;2.30;;;;;;;6.42;85.68;103171.09;5010664;28;20054;-80
2021/11/15 04:04:53;;;;;;;2.90;2.40;;;;;;;6.38;85.32;103178.47;5014014;28;20030;-80
2021/11/15 04:07:31;;;;;;;3.80;2.35;;;;;;;6.39;85.71;103171.31;5015846;28;20056;-80
2021/11/15 04:10:00;;;;;;;2.33;2.10;;;;;;;6.01;85.74;103122.38;5017573;28;20420;-80
2021/11/15 04:12:27;;;;;;;2.88;2.25;;;;;;;5.74;85.51;103061.09;5015207;28;20037;-80
2021/11/15 04:14:52;;;;;;;3.83;2.30;;;;;;;6.42;85.58;103173.75;5015966;28;20036;-80
2021/11/15 04:17:20;;;;;;;3.10;2.20;;;;;;;6.44;85.81;103174.50;5014921;28;20021;-79
2021/11/15 04:19:49;;;;;;;3.63;1.95;;;;;;;6.22;85.91;103130.63;5017056;28;20042;-79
2021/11/15 04:22:15;;;;;;;2.90;2.03;;;;;;;6.38;85.95;103150.91;5015702;28;20024;-79
2021/11/15 04:24:41;;;;;;;3.92;2.20;;;;;;;6.21;86.15;103128.94;5015807;28;20535;-79
2021/11/15 04:27:07;;;;;;;2.72;2.13;;;;;;;6.43;86.22;103160.28;5014837;28;20347;-79
2021/11/15 04:29:33;;;;;;;4.95;2.10;;;;;;;6.42;86.27;103168.41;5015644;28;20076;-80
2021/11/15 04:31:59;;;;;;;3.40;2.10;;;;;;;6.38;86.50;103165.13;5015652;28;20383;-80
2021/11/15 04:34:24;;;;;;;2.47;2.15;;;;;;;6.32;86.31;103157.53;5017089;28;20053;-80
2021/11/15 04:36:50;;;;;;;3.92;2.35;;;;;;;6.44;86.33;103167.34;5017508;28;20087;-80
2021/11/15 04:39:15;;;;;;;3.55;2.17;;;;;;;6.45;86.33;103157.50;5014522;28;20029;-80
2021/11/15 04:41:41;;;;;;;2.88;1.88;;;;;;;6.28;86.68;103134.69;5015816;28;20043;-80
2021/11/15 04:44:07;;;;;;;4.45;2.20;;;;;;;6.41;86.78;103162.22;5015088;28;20026;-79
2021/11/15 04:46:32;;;;;;;4.10;2.20;;;;;;;6.47;86.94;103160.91;5000193;28;20123;-80
2021/11/15 04:48:58;;;;;;;3.75;2.22;;;;;;;6.50;87.06;103156.19;5020304;28;20034;-80
2021/11/15 04:51:23;;;;;;;4.07;2.22;;;;;;;6.44;87.04;103156.63;5004792;28;20360;-79
2021/11/15 04:53:49;;;;;;;3.53;2.22;;;;;;;6.12;87.49;103108.22;5019836;28;20034;-80
2021/11/15 04:56:15;;;;;;;4.40;2.20;;;;;;;6.40;87.37;103148.97;5016984;28;20030;-79
2021/11/15 04:58:40;;;;;;;3.40;2.38;;;;;;;6.28;87.96;103143.53;5015197;28;20107;-79
2021/11/15 05:01:07;;;;;;;3.58;2.00;;;;;;;6.27;87.85;103138.31;5013116;28;20030;-80
2021/11/15 05:03:35;;;;;;;5.00;2.30;;;;;;;6.15;87.76;103124.03;5015120;28;20026;-81
2021/11/15 05:06:02;;;;;;;3.85;2.17;;;;;;;6.30;88.06;103138.09;5014562;28;20036;-79
2021/11/15 05:08:27;;;;;;;3.38;2.20;;;;;;;6.08;88.61;103109.41;5015089;28;20036;-80
2021/11/15 05:10:53;;;;;;;4.03;2.40;;;;;;;6.27;88.33;103128.47;5014730;28;20034;-80
2021/11/15 05:13:19;;;;;;;3.90;2.30;;;;;;;6.05;89.15;103118.50;4978052;28;20440;-80
2021/11/15 05:15:44;;;;;;;3.92;2.20;;;;;;;6.24;88.91;103141.22;5013779;28;20419;-80
2021/11/15 05:18:10;;;;;;;3.08;2.35;;;;;;;6.20;88.74;103123.72;4981471;28;20053;-79
2021/11/15 05:20:35;;;;;;;4.43;2.45;;;;;;;6.20;89.04;103121.03;5013469;28;20051;-79
2021/11/15 05:23:01;;;;;;;6.57;2.45;;;;;;;6.02;89.19;103096.50;5014738;28;20030;-80
2021/11/15 05:25:26;;;;;;;6.82;2.45;;;;;;;6.20;89.39;103134.41;5014118;28;20026;-80
2021/11/15 05:27:52;;;;;;;4.28;2.45;;;;;;;6.19;89.55;103135.34;5016613;28;20034;-81
2021/11/15 05:30:20;;;;;;;4.03;2.45;;;;;;;6.15;89.93;103132.06;5020612;28;20034;-79
2021/11/15 05:32:47;;;;;;;4.25;2.53;;;;;;;5.92;90.53;103096.28;4999506;28;20021;-79
2021/11/15 05:35:13;;;;;;;4.47;3.10;;;;;;;5.87;90.29;103069.91;5016849;28;20025;-79
2021/11/15 05:37:39;;;;;;;3.92;2.70;;;;;;;6.03;90.14;103101.75;5015793;28;20045;-80
2021/11/15 05:40:07;;;;;;;4.72;2.30;;;;;;;5.93;90.88;103098.06;5012913;28;20041;-80
2021/11/15 05:42:33;;;;;;;4.20;2.42;;;;;;;6.18;90.77;103128.31;5017467;28;20116;-79
2021/11/15 05:44:59;;;;;;;3.97;2.50;;;;;;;6.05;91.46;103112.31;4998750;28;20116;-80
2021/11/15 05:47:24;;;;;;;9.63;3.28;;;;;;;6.07;92.34;103127.28;5014870;28;20056;-80
2021/11/15 05:49:50;;;;;;;6.00;2.72;;;;;;;6.07;91.66;103118.41;5015026;28;20045;-79
2021/11/15 05:52:17;;;;;;;8.52;2.83;;;;;;;5.85;92.67;103089.69;5023312;28;20516;-83
2021/11/15 05:54:42;;;;;;;5.35;2.95;;;;;;;6.06;92.70;103122.03;5028214;28;20044;-81
2021/11/15 05:57:08;;;;;;;5.65;2.67;;;;;;;6.06;92.97;103120.25;5027181;28;20459;-82
2021/11/15 05:59:33;;;;;;;5.70;2.88;;;;;;;5.97;92.64;103101.34;5029069;28;20030;-81
2021/11/15 06:01:59;;;;;;;5.70;3.28;;;;;;;6.00;93.48;103126.03;5013851;28;20376;-80
2021/11/15 06:04:24;;;;;;;3.95;2.60;;;;;;;5.86;94.38;103112.75;5015060;28;20436;-79
2021/11/15 06:06:51;;;;;;;4.05;3.00;;;;;;;5.88;94.59;103126.88;5013984;28;20041;-80
2021/11/15 06:09:17;;;;;;;6.05;3.03;;;;;;;5.81;95.38;103130.97;5012947;28;20467;-80
2021/11/15 06:11:42;;;;;;;5.70;3.03;;;;;;;5.76;94.97;103112.59;5034792;28;20059;-80
2021/11/15 06:14:09;;;;;;;6.35;3.13;;;;;;;5.91;94.72;103132.00;5003602;28;20033;-79
2021/11/15 06:16:35;;;;;;;4.95;3.40;;;;;;;5.80;95.57;103122.09;5014144;28;20061;-79
2021/11/15 06:19:00;;;;;;;4.30;3.10;;;;;;;5.69;95.92;103118.47;5013573;28;20131;-79
2021/11/15 06:21:26;;;;;;;6.68;3.42;;;;;;;5.62;97.08;103124.25;5011829;28;20030;-80
2021/11/15 06:23:51;;;;;;;4.32;3.50;;;;;;;5.74;96.91;103135.03;5014626;28;20065;-80
2021/11/15 06:26:17;;;;;;;5.03;3.60;;;;;;;5.73;97.10;103136.00;4996810;28;20034;-79
2021/11/15 06:28:46;;;;;;;5.32;3.67;;;;;;;5.74;97.42;103129.69;5012144;28;20030;-79
2021/11/15 06:31:12;;;;;;;7.18;3.97;;;;;;;5.76;97.25;103128.63;4997276;28;20030;-79
2021/11/15 06:33:38;;;;;;;6.32;3.72;;;;;;;5.75;98.16;103126.06;5012196;28;20088;-79
2021/11/15 06:36:03;;;;;;;6.60;4.18;;;;;;;5.80;97.90;103129.25;4991821;28;20026;-79
2021/11/15 06:38:29;;;;;;;7.82;4.72;;;;;;;5.82;97.83;103122.81;4992761;28;20058;-79
2021/11/15 06:40:54;;;;;;;7.13;4.70;;;;;;;5.85;97.66;103122.59;5009774;28;20038;-79
2021/11/15 06:43:20;;;;;;;6.55;4.68;;;;;;;5.81;98.67;103126.47;4994010;28;20101;-80
2021/11/15 06:45:47;;;;;;;8.10;4.60;;;;;;;5.79;98.87;103127.53;5010920;28;20102;-79
2021/11/15 06:48:12;;;;;;;9.75;4.70;;;;;;;5.65;98.90;103107.16;4993877;28;20080;-79
2021/11/15 06:50:38;;;;;;;6.03;4.60;;;;;;;5.68;99.81;103112.28;4993284;28;20554;-79
2021/11/15 06:53:03;;;;;;;6.68;4.57;;;;;;;5.77;99.08;103119.66;5011876;28;20032;-80
2021/11/15 06:55:31;;;;;;;8.90;5.68;;;;;;;5.79;99.54;103116.84;5009610;28;20056;-80
2021/11/15 06:57:57;;;;;;;9.07;5.70;;;;;;;5.77;99.17;103105.44;5010802;28;20117;-79
2021/11/15 07:00:25;;;;;;;9.00;6.10;;;;;;;5.89;99.15;103128.56;4995208;28;20117;-79
2021/11/15 07:02:53;;;;;;;9.43;6.50;;;;;;;5.92;99.02;103128.34;5016342;28;20058;-80
2021/11/15 07:05:21;;;;;;;11.27;6.35;;;;;;;5.93;99.47;103132.78;5000386;28;20034;-80
2021/11/15 07:07:49;;;;;;;10.30;5.53;;;;;;;5.98;99.32;103130.63;5010538;28;20061;-79
2021/11/15 07:10:16;;;;;;;8.77;6.47;;;;;;;6.02;99.46;103139.25;5013087;28;20033;-80
2021/11/15 07:12:42;;;;;;;9.68;6.68;;;;;;;6.02;99.44;103132.09;5006830;28;20099;-79
2021/11/15 07:15:09;;;;;;;9.98;6.82;;;;;;;6.06;99.50;103136.28;5011026;28;20065;-78
2021/11/15 07:17:35;;;;;;;13.57;6.63;;;;;;;6.08;99.97;103134.31;5002192;28;20113;-78
2021/11/15 07:20:01;;;;;;;11.23;6.57;;;;;;;6.11;99.47;103131.44;5002716;28;20404;-78
2021/11/15 07:22:26;;;;;;;9.15;6.57;;;;;;;5.88;99.85;103084.13;5003407;28;20022;-78
2021/11/15 07:24:52;;;;;;;15.15;7.18;;;;;;;6.12;99.95;103121.59;5023524;28;20397;-78
2021/11/15 07:27:18;;;;;;;14.35;7.18;;;;;;;6.15;100.00;103128.53;5012527;28;20037;-78
2021/11/15 07:29:43;;;;;;;10.77;6.40;;;;;;;5.94;100.00;103093.56;5003034;28;20348;-78
2021/11/15 07:32:12;;;;;;;8.90;6.38;;;;;;;6.14;100.00;103118.81;5002422;28;20487;-79
2021/11/15 07:34:39;;;;;;;9.13;6.75;;;;;;;6.24;100.00;103125.19;5006201;28;20437;-79
2021/11/15 07:37:04;;;;;;;9.27;6.00;;;;;;;6.24;100.00;103130.53;5008435;28;20044;-79
2021/11/15 07:39:30;;;;;;;10.02;5.93;;;;;;;6.24;100.00;103127.84;5004160;28;20034;-79
2021/11/15 07:41:55;;;;;;;9.30;6.40;;;;;;;6.24;100.00;103131.38;5008738;28;20036;-78
2021/11/15 07:44:21;;;;;;;6.55;5.53;;;;;;;6.21;100.00;103126.25;5008435;28;20027;-77
2021/11/15 07:46:48;;;;;;;9.02;6.00;;;;;;;6.28;100.00;103129.31;4993263;28;20033;-79
2021/11/15 07:49:14;;;;;;;10.82;6.22;;;;;;;6.30;100.00;103138.09;5008457;28;20469;-78
2021/11/15 07:51:40;;;;;;;9.10;6.13;;;;;;;6.22;100.00;103127.09;4993383;28;20057;-79
2021/11/15 07:54:07;;;;;;;11.88;5.50;;;;;;;6.34;100.00;103144.91;4989789;28;20030;-78
2021/11/15 07:56:32;;;;;;;8.40;5.57;;;;;;;6.34;100.00;103135.06;4991664;28;20030;-78
2021/11/15 07:58:58;;;;;;;9.98;6.32;;;;;;;6.16;100.00;103104.38;5005794;28;20034;-78
2021/11/15 08:01:25;;;;;;;7.78;6.03;;;;;;;6.39;100.00;103123.16;5008475;28;20042;-78
2021/11/15 08:03:51;;;;;;;8.65;6.10;;;;;;;6.26;100.00;103104.53;4988796;28;20352;-79
2021/11/15 08:06:17;;;;;;;8.68;5.68;;;;;;;6.40;100.00;103133.78;5021228;28;20034;-78
2021/11/15 08:08:47;;;;;;;8.43;5.63;;;;;;;6.28;100.00;103102.59;5004445;28;20033;-79
2021/11/15 08:11:14;;;;;;;10.48;6.25;;;;;;;6.42;100.00;103125.63;5010395;28;20033;-78
2021/11/15 08:13:40;;;;;;;12.57;6.43;;;;;;;6.43;100.00;103130.88;5005655;28;20042;-78
2021/11/15 08:16:05;;;;;;;9.70;5.97;;;;;;;6.45;100.00;103126.25;5008398;28;20605;-78
2021/11/15 08:18:31;;;;;;;9.35;5.82;;;;;;;6.47;100.00;103123.47;4986735;28;20778;-79
2021/11/15 08:20:57;;;;;;;9.07;6.07;;;;;;;6.48;100.00;103126.00;5004908;28;20030;-78
2021/11/15 08:23:23;;;;;;;9.07;5.85;;;;;;;6.49;100.00;103122.41;4986811;28;20515;-78
2021/11/15 08:26:19;;;;;;;8.50;5.80;;;;;;;6.52;100.00;103127.50;5005883;28;20367;-78
2021/11/15 08:28:44;;;;;;;9.57;5.65;;;;;;;6.53;100.00;103129.22;5003415;28;20030;-78
2021/11/15 08:31:11;;;;;;;7.70;5.57;;;;;;;6.55;100.00;103132.59;5004749;28;20044;-78
2021/11/15 08:33:37;;;;;;;9.60;5.57;;;;;;;6.46;100.00;103111.94;5003116;28;20030;-78
2021/11/15 08:36:03;;;;;;;8.45;5.47;;;;;;;6.54;100.00;103120.22;5003909;28;20085;-78
2021/11/15 08:38:37;;;;;;;7.45;5.28;;;;;;;6.57;100.00;103117.31;5001923;28;20109;-78
2021/11/15 08:41:03;;;;;;;7.00;5.03;;;;;;;6.58;100.00;103119.00;5011384;28;20032;-78
2021/11/15 08:43:28;;;;;;;7.80;5.00;;;;;;;6.62;100.00;103124.13;4993389;28;20038;-78
2021/11/15 08:45:54;;;;;;;8.15;5.18;;;;;;;6.61;100.00;103120.59;5011389;28;20493;-79
2021/11/15 08:48:20;;;;;;;8.18;4.70;;;;;;;6.61;100.00;103117.06;5003054;28;20042;-78
2021/11/15 08:50:46;;;;;;;8.10;4.85;;;;;;;6.37;100.00;103067.16;5002710;28;20535;-78
2021/11/15 08:53:11;;;;;;;7.35;4.40;;;;;;;6.70;100.00;103119.06;5008772;28;20068;-78
2021/11/15 08:55:37;;;;;;;5.32;4.07;;;;;;;6.70;100.00;103108.34;5006570;28;20046;-78
2021/11/15 08:58:04;;;;;;;6.97;4.38;;;;;;;6.71;100.00;103102.03;5006817;28;20029;-78
2021/11/15 09:00:29;;;;;;;7.53;4.70;;;;;;;6.74;100.00;103101.78;5005090;28;20084;-78
2021/11/15 09:02:55;;;;;;;7.60;5.07;;;;;;;6.72;100.00;103096.56;5005148;28;20051;-78
2021/11/15 09:05:21;;;;;;;9.73;4.43;;;;;;;6.77;100.00;103093.53;5006988;28;20049;-79
2021/11/15 09:07:47;;;;;;;7.72;4.03;;;;;;;6.78;100.00;103096.06;5007607;28;20037;-78
2021/11/15 09:10:14;;;;;;;5.63;4.13;;;;;;;6.79;100.00;103080.91;5003475;28;20037;-78
2021/11/15 09:12:41;;;;;;;7.22;4.00;;;;;;;6.82;100.00;103089.53;4991219;28;20042;-78
2021/11/15 09:15:10;;;;;;;11.98;4.05;;;;;;;6.85;100.00;103080.41;5004468;28;20133;-78
2021/11/15 09:17:38;;;;;;;5.72;3.67;;;;;;;6.89;100.00;103081.88;5003056;28;20048;-78
2021/11/15 09:20:06;;;;;;;5.45;3.70;;;;;;;6.88;99.80;103073.97;5005212;28;20018;-79
2021/11/15 09:22:31;;;;;;;5.75;3.50;;;;;;;6.92;99.99;103081.66;5002437;28;20172;-78
2021/11/15 09:24:58;;;;;;;6.38;3.70;;;;;;;6.61;99.39;103018.94;4999226;28;20042;-78
2021/11/15 09:27:26;;;;;;;7.93;3.10;;;;;;;7.01;99.81;103078.22;5007137;28;20453;-78
2021/11/15 09:29:53;;;;;;;6.00;3.80;;;;;;;7.02;99.49;103085.31;5008269;28;20034;-79
2021/11/15 09:32:20;;;;;;;5.72;3.35;;;;;;;7.04;99.42;103080.66;4988704;28;20030;-78
2021/11/15 09:34:46;;;;;;;7.18;3.50;;;;;;;7.07;99.43;103077.75;5005361;28;20026;-78
2021/11/15 09:37:14;;;;;;;6.07;4.07;;;;;;;7.01;99.20;103064.84;5009002;28;20087;-78
2021/11/15 09:39:42;;;;;;;7.80;4.10;;;;;;;7.09;99.01;103074.97;5003091;28;20030;-78
2021/11/15 09:42:08;;;;;;;5.43;3.67;;;;;;;7.13;99.15;103079.13;5008286;28;20025;-78
2021/11/15 09:44:34;;;;;;;5.15;3.40;;;;;;;7.15;98.50;103076.31;5005195;28;20585;-78
2021/11/15 09:47:03;;;;;;;4.95;3.63;;;;;;;7.16;98.34;103070.00;5002650;28;20033;-78
2021/11/15 09:49:30;;;;;;;6.05;3.30;;;;;;;6.92;98.25;103037.94;5003938;28;20053;-78
2021/11/15 09:51:55;;;;;;;5.72;2.83;;;;;;;7.09;98.06;103060.75;5003532;28;20348;-78
2021/11/15 09:54:21;;;;;;;5.90;2.80;;;;;;;6.94;97.69;103023.47;5001691;28;20041;-78
2021/11/15 09:56:49;;;;;;;4.03;2.60;;;;;;;7.18;97.48;103065.34;5005020;28;20026;-78
2021/11/15 09:59:14;;;;;;;3.60;2.38;;;;;;;7.12;97.16;103044.41;5004011;28;20091;-78
2021/11/15 10:01:43;;;;;;;4.40;2.83;;;;;;;7.20;96.76;103066.94;5002816;28;20057;-78
2021/11/15 10:04:11;;;;;;;4.68;2.67;;;;;;;7.16;96.92;103057.44;5002959;28;20122;-78
2021/11/15 10:06:39;;;;;;;3.53;2.50;;;;;;;7.19;96.72;103061.72;5002478;28;20073;-79
2021/11/15 10:09:05;;;;;;;5.80;2.60;;;;;;;7.17;96.50;103067.19;5004899;28;20033;-78
2021/11/15 10:11:46;;;;;;;6.07;2.40;;;;;;;7.18;96.50;103057.31;5003124;28;20036;-79
2021/11/15 10:14:14;;;;;;;3.17;2.38;;;;;;;7.18;95.93;103060.84;5003403;28;20022;-79
2021/11/15 10:16:40;;;;;;;5.20;2.80;;;;;;;7.17;96.06;103053.78;5002831;28;20509;-78
2021/11/15 10:19:12;;;;;;;4.32;2.28;;;;;;;7.14;95.69;103050.50;5003523;28;20370;-77
2021/11/15 10:21:54;;;;;;;5.88;2.45;;;;;;;7.14;95.88;103045.16;5004488;28;20022;-78
2021/11/15 10:24:23;;;;;;;5.10;2.58;;;;;;;7.19;95.12;103046.50;5010072;28;20030;-80
2021/11/15 10:27:10;;;;;;;4.35;2.30;;;;;;;7.14;95.30;103031.75;5008953;28;20026;-78
2021/11/15 10:29:47;;;;;;;4.00;2.45;;;;;;;7.04;95.24;103010.22;5008685;28;20017;-78
2021/11/15 10:32:29;;;;;;;4.95;2.65;;;;;;;7.20;95.02;103036.63;5005595;28;20036;-78
2021/11/15 10:34:58;;;;;;;4.38;2.50;;;;;;;7.19;94.86;103037.63;5002510;28;20037;-78
2021/11/15 10:37:29;;;;;;;5.78;2.70;;;;;;;7.19;94.81;103035.78;5003261;28;20022;-79
2021/11/15 10:39:57;;;;;;;4.28;2.33;;;;;;;7.20;94.96;103031.28;5005733;28;20460;-78
2021/11/15 10:42:29;;;;;;;3.08;2.22;;;;;;;7.22;94.63;103024.00;5019002;28;20034;-78
2021/11/15 10:45:01;;;;;;;4.05;2.60;;;;;;;7.22;94.50;103034.69;5004296;28;20026;-79
2021/11/15 10:47:33;;;;;;;4.00;2.60;;;;;;;7.23;94.75;103033.72;5003389;28;20375;-78
2021/11/15 10:50:11;;;;;;;6.95;2.78;;;;;;;7.15;94.95;103012.03;5003402;28;20049;-79
2021/11/15 10:52:41;;;;;;;5.03;2.33;;;;;;;7.01;94.23;102995.25;5004724;28;20053;-77
2021/11/15 10:55:07;;;;;;;4.68;2.38;;;;;;;7.19;94.54;103017.03;4984258;28;20034;-78
2021/11/15 10:57:45;;;;;;;6.15;2.67;;;;;;;7.20;94.35;103004.50;4980511;28;20371;-78
2021/11/15 11:00:25;;;;;;;3.38;2.25;;;;;;;7.29;94.40;103011.81;4982940;28;20038;-78
2021/11/15 11:02:54;;;;;;;5.07;2.70;;;;;;;7.25;94.36;103002.28;4981454;28;20085;-78
2021/11/15 11:05:26;;;;;;;4.68;2.70;;;;;;;7.22;94.19;102991.84;4980063;28;20039;-78
2021/11/15 11:08:06;;;;;;;4.55;2.60;;;;;;;7.30;94.12;103008.16;4970572;28;20030;-78
2021/11/15 11:10:39;;;;;;;3.97;2.65;;;;;;;7.26;94.74;103010.22;4956002;28;20038;-78
2021/11/15 11:13:05;;;;;;;8.02;2.58;;;;;;;7.35;94.19;103013.13;4985390;28;20443;-78
2021/11/15 11:18:13;;;;;;;3.85;2.38;;;;;;;7.37;93.83;103013.84;4986045;28;20141;-78
2021/11/15 11:26:15;;;;;;;5.05;3.20;;;;;;;7.36;93.89;102999.63;4999970;28;20084;-79
2021/11/15 11:28:42;;;;;;;;;;;;;;;7.38;94.12;102997.66;5008358;28;20042;-78
2021/11/15 11:31:10;;;;;;;3.72;2.55;;;;;;;7.38;93.76;103005.69;5007880;28;19925;-78
2021/11/15 11:33:36;;;;;;;7.80;2.88;;;;;;;7.42;93.52;103001.81;5005306;28;20084;-78
2021/11/15 11:36:05;;;;;;;5.57;3.17;;;;;;;7.27;93.61;102968.22;4990629;28;20494;-77
2021/11/15 11:38:31;;;;;;;7.07;2.38;;;;;;;7.45;93.65;102998.88;5004911;28;20034;-78